sensor_id;sensor_type;location;lat;lon;timestamp;temperature;humidity
22098;DHT22;11215;51.938;8.464;2022-09-02T00:01:01;19.80;40.80
22098;DHT22;11215;51.938;8.464;2022-09-02T00:03:28;19.80;40.90
22098;DHT22;11215;51.938;8.464;2022-09-02T00:05:56;19.80;40.90
22098;DHT22;11215;51.938;8.464;2022-09-02T00:08:22;19.80;41.00
22098;DHT22;11215;51.938;8.464;2022-09-02T00:10:47;19.70;41.00
22098;DHT22;11215;51.938;8.464;2022-09-02T00:13:16;19.70;41.10
22098;DHT22;11215;51.938;8.464;2022-09-02T00:15:44;19.70;41.20
22098;DHT22;11215;51.938;8.464;2022-09-02T00:18:12;19.70;41.30
22098;DHT22;11215;51.938;8.464;2022-09-02T00:20:40;19.70;41.40
22098;DHT22;11215;51.938;8.464;2022-09-02T00:23:06;19.60;41.40
22098;DHT22;11215;51.938;8.464;2022-09-02T00:25:33;19.60;41.40
22098;DHT22;11215;51.938;8.464;2022-09-02T00:27:59;19.60;41.50
22098;DHT22;11215;51.938;8.464;2022-09-02T00:30:25;19.60;41.50
22098;DHT22;11215;51.938;8.464;2022-09-02T00:32:51;19.50;41.60
22098;DHT22;11215;51.938;8.464;2022-09-02T00:35:16;19.50;41.70
22098;DHT22;11215;51.938;8.464;2022-09-02T00:37:42;19.50;41.70
22098;DHT22;11215;51.938;8.464;2022-09-02T00:40:08;19.50;41.80
22098;DHT22;11215;51.938;8.464;2022-09-02T00:42:36;19.50;41.80
22098;DHT22;11215;51.938;8.464;2022-09-02T00:45:03;19.50;42.00
22098;DHT22;11215;51.938;8.464;2022-09-02T00:47:29;19.40;41.90
22098;DHT22;11215;51.938;8.464;2022-09-02T00:49:56;19.40;41.90
22098;DHT22;11215;51.938;8.464;2022-09-02T00:52:43;19.40;42.00
22098;DHT22;11215;51.938;8.464;2022-09-02T00:55:19;19.40;42.40
22098;DHT22;11215;51.938;8.464;2022-09-02T00:58:06;19.30;42.00
22098;DHT22;11215;51.938;8.464;2022-09-02T01:00:36;19.30;42.40
22098;DHT22;11215;51.938;8.464;2022-09-02T01:03:10;19.30;42.20
22098;DHT22;11215;51.938;8.464;2022-09-02T01:05:39;19.20;42.30
22098;DHT22;11215;51.938;8.464;2022-09-02T01:08:08;19.20;42.30
22098;DHT22;11215;51.938;8.464;2022-09-02T01:10:34;19.20;42.30
22098;DHT22;11215;51.938;8.464;2022-09-02T01:13:06;19.20;42.30
22098;DHT22;11215;51.938;8.464;2022-09-02T01:15:39;19.10;42.50
22098;DHT22;11215;51.938;8.464;2022-09-02T01:18:07;19.10;42.50
22098;DHT22;11215;51.938;8.464;2022-09-02T01:20:33;19.00;42.50
22098;DHT22;11215;51.938;8.464;2022-09-02T01:22:59;19.00;42.50
22098;DHT22;11215;51.938;8.464;2022-09-02T01:25:29;19.00;42.70
22098;DHT22;11215;51.938;8.464;2022-09-02T01:28:05;18.90;42.80
22098;DHT22;11215;51.938;8.464;2022-09-02T01:30:32;18.90;43.10
22098;DHT22;11215;51.938;8.464;2022-09-02T01:32:58;18.90;43.00
22098;DHT22;11215;51.938;8.464;2022-09-02T01:35:24;18.80;43.00
22098;DHT22;11215;51.938;8.464;2022-09-02T01:37:54;18.80;43.10
22098;DHT22;11215;51.938;8.464;2022-09-02T01:40:20;18.80;43.40
22098;DHT22;11215;51.938;8.464;2022-09-02T01:42:46;18.80;43.30
22098;DHT22;11215;51.938;8.464;2022-09-02T01:45:12;18.80;43.40
22098;DHT22;11215;51.938;8.464;2022-09-02T01:47:40;18.80;43.40
22098;DHT22;11215;51.938;8.464;2022-09-02T01:50:06;18.80;43.40
22098;DHT22;11215;51.938;8.464;2022-09-02T01:52:32;18.80;43.40
22098;DHT22;11215;51.938;8.464;2022-09-02T01:54:58;18.70;43.40
22098;DHT22;11215;51.938;8.464;2022-09-02T01:57:24;18.70;43.50
22098;DHT22;11215;51.938;8.464;2022-09-02T01:59:51;18.60;43.50
22098;DHT22;11215;51.938;8.464;2022-09-02T02:02:17;18.70;43.70
22098;DHT22;11215;51.938;8.464;2022-09-02T02:04:45;18.60;43.80
22098;DHT22;11215;51.938;8.464;2022-09-02T02:07:12;18.60;43.80
22098;DHT22;11215;51.938;8.464;2022-09-02T02:09:38;18.50;43.90
22098;DHT22;11215;51.938;8.464;2022-09-02T02:12:04;18.50;43.90
22098;DHT22;11215;51.938;8.464;2022-09-02T02:14:30;18.50;44.00
22098;DHT22;11215;51.938;8.464;2022-09-02T02:16:56;18.50;44.10
22098;DHT22;11215;51.938;8.464;2022-09-02T02:19:22;18.50;44.20
22098;DHT22;11215;51.938;8.464;2022-09-02T02:21:48;18.50;44.20
22098;DHT22;11215;51.938;8.464;2022-09-02T02:24:13;18.40;44.10
22098;DHT22;11215;51.938;8.464;2022-09-02T02:26:39;18.40;44.20
22098;DHT22;11215;51.938;8.464;2022-09-02T02:29:05;18.40;44.20
22098;DHT22;11215;51.938;8.464;2022-09-02T02:31:31;18.40;44.30
22098;DHT22;11215;51.938;8.464;2022-09-02T02:33:57;18.40;44.40
22098;DHT22;11215;51.938;8.464;2022-09-02T02:36:24;18.30;44.50
22098;DHT22;11215;51.938;8.464;2022-09-02T02:38:50;18.30;44.50
22098;DHT22;11215;51.938;8.464;2022-09-02T02:41:15;18.20;44.80
22098;DHT22;11215;51.938;8.464;2022-09-02T02:43:41;18.20;44.80
22098;DHT22;11215;51.938;8.464;2022-09-02T02:46:08;18.20;44.90
22098;DHT22;11215;51.938;8.464;2022-09-02T02:48:34;18.20;45.00
22098;DHT22;11215;51.938;8.464;2022-09-02T02:51:01;18.10;45.10
22098;DHT22;11215;51.938;8.464;2022-09-02T02:53:27;18.10;45.20
22098;DHT22;11215;51.938;8.464;2022-09-02T02:55:56;18.10;45.20
22098;DHT22;11215;51.938;8.464;2022-09-02T02:58:21;18.10;45.30
22098;DHT22;11215;51.938;8.464;2022-09-02T03:00:47;18.00;45.30
22098;DHT22;11215;51.938;8.464;2022-09-02T03:03:14;18.00;45.50
22098;DHT22;11215;51.938;8.464;2022-09-02T03:05:45;17.90;45.50
22098;DHT22;11215;51.938;8.464;2022-09-02T03:08:12;17.90;45.70
22098;DHT22;11215;51.938;8.464;2022-09-02T03:10:39;17.90;45.70
22098;DHT22;11215;51.938;8.464;2022-09-02T03:13:07;17.80;45.80
22098;DHT22;11215;51.938;8.464;2022-09-02T03:15:37;17.80;46.00
22098;DHT22;11215;51.938;8.464;2022-09-02T03:18:03;17.80;46.00
22098;DHT22;11215;51.938;8.464;2022-09-02T03:20:29;17.80;46.00
22098;DHT22;11215;51.938;8.464;2022-09-02T03:22:56;17.70;46.10
22098;DHT22;11215;51.938;8.464;2022-09-02T03:25:25;17.70;46.20
22098;DHT22;11215;51.938;8.464;2022-09-02T03:27:52;17.70;46.30
22098;DHT22;11215;51.938;8.464;2022-09-02T03:30:20;17.70;46.30
22098;DHT22;11215;51.938;8.464;2022-09-02T03:32:47;17.60;46.60
22098;DHT22;11215;51.938;8.464;2022-09-02T03:35:15;17.60;46.50
22098;DHT22;11215;51.938;8.464;2022-09-02T03:37:42;17.60;46.80
22098;DHT22;11215;51.938;8.464;2022-09-02T03:40:11;17.50;46.70
22098;DHT22;11215;51.938;8.464;2022-09-02T03:42:37;17.50;47.00
22098;DHT22;11215;51.938;8.464;2022-09-02T03:45:04;17.50;46.90
22098;DHT22;11215;51.938;8.464;2022-09-02T03:47:31;17.40;47.00
22098;DHT22;11215;51.938;8.464;2022-09-02T03:49:57;17.40;47.10
22098;DHT22;11215;51.938;8.464;2022-09-02T03:52:23;17.40;47.10
22098;DHT22;11215;51.938;8.464;2022-09-02T03:54:49;17.40;47.30
22098;DHT22;11215;51.938;8.464;2022-09-02T03:57:16;17.40;47.30
22098;DHT22;11215;51.938;8.464;2022-09-02T03:59:45;17.40;47.40
22098;DHT22;11215;51.938;8.464;2022-09-02T04:02:11;17.40;47.40
22098;DHT22;11215;51.938;8.464;2022-09-02T04:04:37;17.30;47.50
22098;DHT22;11215;51.938;8.464;2022-09-02T04:07:02;17.30;47.50
22098;DHT22;11215;51.938;8.464;2022-09-02T04:09:28;17.30;47.50
22098;DHT22;11215;51.938;8.464;2022-09-02T04:11:54;17.30;47.60
22098;DHT22;11215;51.938;8.464;2022-09-02T04:14:19;17.30;47.70
22098;DHT22;11215;51.938;8.464;2022-09-02T04:20:45;17.20;48.60
22098;DHT22;11215;51.938;8.464;2022-09-02T04:23:10;17.20;48.40
22098;DHT22;11215;51.938;8.464;2022-09-02T04:25:41;17.20;47.80
22098;DHT22;11215;51.938;8.464;2022-09-02T04:28:07;17.20;48.30
22098;DHT22;11215;51.938;8.464;2022-09-02T04:30:33;17.10;48.00
22098;DHT22;11215;51.938;8.464;2022-09-02T04:32:59;17.10;48.10
22098;DHT22;11215;51.938;8.464;2022-09-02T04:35:24;17.10;48.10
22098;DHT22;11215;51.938;8.464;2022-09-02T04:37:50;17.10;48.20
22098;DHT22;11215;51.938;8.464;2022-09-02T04:40:16;17.10;48.20
22098;DHT22;11215;51.938;8.464;2022-09-02T04:42:42;17.10;48.30
22098;DHT22;11215;51.938;8.464;2022-09-02T04:45:08;17.00;48.30
22098;DHT22;11215;51.938;8.464;2022-09-02T04:47:34;17.00;48.40
22098;DHT22;11215;51.938;8.464;2022-09-02T04:49:59;17.00;48.50
22098;DHT22;11215;51.938;8.464;2022-09-02T04:52:25;17.00;48.60
22098;DHT22;11215;51.938;8.464;2022-09-02T04:54:51;17.00;48.70
22098;DHT22;11215;51.938;8.464;2022-09-02T04:57:17;17.00;48.80
22098;DHT22;11215;51.938;8.464;2022-09-02T04:59:42;17.00;48.80
22098;DHT22;11215;51.938;8.464;2022-09-02T05:02:09;17.00;48.90
22098;DHT22;11215;51.938;8.464;2022-09-02T05:04:36;16.90;49.60
22098;DHT22;11215;51.938;8.464;2022-09-02T05:07:03;16.90;49.00
22098;DHT22;11215;51.938;8.464;2022-09-02T05:09:29;16.90;49.00
22098;DHT22;11215;51.938;8.464;2022-09-02T05:11:55;16.90;49.00
22098;DHT22;11215;51.938;8.464;2022-09-02T05:14:28;16.90;49.00
22098;DHT22;11215;51.938;8.464;2022-09-02T05:16:57;16.90;49.10
22098;DHT22;11215;51.938;8.464;2022-09-02T05:19:25;16.90;49.50
22098;DHT22;11215;51.938;8.464;2022-09-02T05:21:52;16.90;49.30
22098;DHT22;11215;51.938;8.464;2022-09-02T05:24:19;16.90;49.50
22098;DHT22;11215;51.938;8.464;2022-09-02T05:26:45;16.90;49.50
22098;DHT22;11215;51.938;8.464;2022-09-02T05:29:12;16.90;49.60
22098;DHT22;11215;51.938;8.464;2022-09-02T05:31:38;16.90;49.70
22098;DHT22;11215;51.938;8.464;2022-09-02T05:34:06;16.90;49.80
22098;DHT22;11215;51.938;8.464;2022-09-02T05:36:32;16.90;49.80
22098;DHT22;11215;51.938;8.464;2022-09-02T05:38:59;17.00;49.90
22098;DHT22;11215;51.938;8.464;2022-09-02T05:41:28;16.90;49.90
22098;DHT22;11215;51.938;8.464;2022-09-02T05:43:56;16.90;50.00
22098;DHT22;11215;51.938;8.464;2022-09-02T05:46:24;17.00;50.30
22098;DHT22;11215;51.938;8.464;2022-09-02T05:48:51;17.00;50.30
22098;DHT22;11215;51.938;8.464;2022-09-02T05:51:40;17.00;50.30
22098;DHT22;11215;51.938;8.464;2022-09-02T05:54:08;17.00;50.60
22098;DHT22;11215;51.938;8.464;2022-09-02T05:56:33;17.00;50.40
22098;DHT22;11215;51.938;8.464;2022-09-02T05:58:59;17.00;50.40
22098;DHT22;11215;51.938;8.464;2022-09-02T06:01:25;17.10;50.50
22098;DHT22;11215;51.938;8.464;2022-09-02T06:03:54;17.10;50.60
22098;DHT22;11215;51.938;8.464;2022-09-02T06:06:31;17.10;50.70
22098;DHT22;11215;51.938;8.464;2022-09-02T06:09:13;17.10;50.70
22098;DHT22;11215;51.938;8.464;2022-09-02T06:12:00;17.20;51.30
22098;DHT22;11215;51.938;8.464;2022-09-02T06:14:26;17.20;51.20
22098;DHT22;11215;51.938;8.464;2022-09-02T06:16:58;17.30;50.80
22098;DHT22;11215;51.938;8.464;2022-09-02T06:19:32;17.30;51.40
22098;DHT22;11215;51.938;8.464;2022-09-02T06:22:04;17.30;51.50
22098;DHT22;11215;51.938;8.464;2022-09-02T06:24:36;17.40;51.50
22098;DHT22;11215;51.938;8.464;2022-09-02T06:27:27;17.40;51.60
22098;DHT22;11215;51.938;8.464;2022-09-02T06:29:54;17.50;51.20
22098;DHT22;11215;51.938;8.464;2022-09-02T06:32:28;17.50;51.60
22098;DHT22;11215;51.938;8.464;2022-09-02T06:35:11;17.60;51.60
22098;DHT22;11215;51.938;8.464;2022-09-02T06:37:46;17.70;52.30
22098;DHT22;11215;51.938;8.464;2022-09-02T06:40:15;17.80;52.00
22098;DHT22;11215;51.938;8.464;2022-09-02T06:42:50;17.90;51.70
22098;DHT22;11215;51.938;8.464;2022-09-02T06:45:37;18.00;52.20
22098;DHT22;11215;51.938;8.464;2022-09-02T06:48:08;18.00;52.30
22098;DHT22;11215;51.938;8.464;2022-09-02T06:50:41;18.10;52.10
22098;DHT22;11215;51.938;8.464;2022-09-02T06:53:13;18.20;51.60
22098;DHT22;11215;51.938;8.464;2022-09-02T06:55:41;18.30;51.10
22098;DHT22;11215;51.938;8.464;2022-09-02T06:58:23;18.40;51.40
22098;DHT22;11215;51.938;8.464;2022-09-02T07:00:53;18.40;51.70
22098;DHT22;11215;51.938;8.464;2022-09-02T07:03:28;18.60;51.60
22098;DHT22;11215;51.938;8.464;2022-09-02T07:06:15;18.70;51.40
22098;DHT22;11215;51.938;8.464;2022-09-02T07:08:49;18.80;51.10
22098;DHT22;11215;51.938;8.464;2022-09-02T07:11:45;18.90;51.30
22098;DHT22;11215;51.938;8.464;2022-09-02T07:14:18;19.00;51.50
22098;DHT22;11215;51.938;8.464;2022-09-02T07:16:50;19.20;51.20
22098;DHT22;11215;51.938;8.464;2022-09-02T07:19:18;19.30;51.00
22098;DHT22;11215;51.938;8.464;2022-09-02T07:21:44;19.40;50.80
22098;DHT22;11215;51.938;8.464;2022-09-02T07:24:12;19.50;50.60
22098;DHT22;11215;51.938;8.464;2022-09-02T07:26:38;19.70;50.60
22098;DHT22;11215;51.938;8.464;2022-09-02T07:29:06;19.70;50.40
22098;DHT22;11215;51.938;8.464;2022-09-02T07:31:37;19.90;50.40
22098;DHT22;11215;51.938;8.464;2022-09-02T07:34:06;20.00;50.20
22098;DHT22;11215;51.938;8.464;2022-09-02T07:36:33;20.10;50.20
22098;DHT22;11215;51.938;8.464;2022-09-02T07:39:02;20.20;49.90
22098;DHT22;11215;51.938;8.464;2022-09-02T07:41:28;20.30;49.80
22098;DHT22;11215;51.938;8.464;2022-09-02T07:43:54;20.40;49.50
22098;DHT22;11215;51.938;8.464;2022-09-02T07:46:20;20.50;49.40
22098;DHT22;11215;51.938;8.464;2022-09-02T07:48:47;20.60;49.20
22098;DHT22;11215;51.938;8.464;2022-09-02T07:51:22;20.80;49.20
22098;DHT22;11215;51.938;8.464;2022-09-02T07:53:48;20.90;48.90
22098;DHT22;11215;51.938;8.464;2022-09-02T07:56:17;21.10;48.80
22098;DHT22;11215;51.938;8.464;2022-09-02T07:58:58;21.20;48.20
22098;DHT22;11215;51.938;8.464;2022-09-02T08:01:27;21.40;47.60
22098;DHT22;11215;51.938;8.464;2022-09-02T08:03:55;21.50;47.70
22098;DHT22;11215;51.938;8.464;2022-09-02T08:06:21;21.60;47.30
22098;DHT22;11215;51.938;8.464;2022-09-02T08:08:57;21.70;47.30
22098;DHT22;11215;51.938;8.464;2022-09-02T08:11:23;21.70;46.80
22098;DHT22;11215;51.938;8.464;2022-09-02T08:13:57;21.80;46.90
22098;DHT22;11215;51.938;8.464;2022-09-02T08:16:44;21.90;47.00
22098;DHT22;11215;51.938;8.464;2022-09-02T08:19:18;21.90;46.90
22098;DHT22;11215;51.938;8.464;2022-09-02T08:21:46;22.00;46.70
22098;DHT22;11215;51.938;8.464;2022-09-02T08:24:15;22.00;46.40
22098;DHT22;11215;51.938;8.464;2022-09-02T08:26:46;22.10;46.30
22098;DHT22;11215;51.938;8.464;2022-09-02T08:29:17;22.10;46.30
22098;DHT22;11215;51.938;8.464;2022-09-02T08:31:54;22.10;46.00
22098;DHT22;11215;51.938;8.464;2022-09-02T08:34:57;22.10;45.90
22098;DHT22;11215;51.938;8.464;2022-09-02T08:37:49;22.20;46.20
22098;DHT22;11215;51.938;8.464;2022-09-02T08:40:21;22.20;45.70
22098;DHT22;11215;51.938;8.464;2022-09-02T08:43:16;22.20;45.90
22098;DHT22;11215;51.938;8.464;2022-09-02T08:45:52;22.20;45.80
22098;DHT22;11215;51.938;8.464;2022-09-02T08:50:59;22.40;45.30
22098;DHT22;11215;51.938;8.464;2022-09-02T08:53:28;22.30;45.30
22098;DHT22;11215;51.938;8.464;2022-09-02T08:55:56;22.40;45.50
22098;DHT22;11215;51.938;8.464;2022-09-02T08:58:28;22.50;45.30
22098;DHT22;11215;51.938;8.464;2022-09-02T09:01:13;22.50;45.30
22098;DHT22;11215;51.938;8.464;2022-09-02T09:04:08;22.60;45.00
22098;DHT22;11215;51.938;8.464;2022-09-02T09:09:43;22.70;44.80
22098;DHT22;11215;51.938;8.464;2022-09-02T09:12:14;22.80;44.80
22098;DHT22;11215;51.938;8.464;2022-09-02T09:14:54;22.80;45.00
22098;DHT22;11215;51.938;8.464;2022-09-02T09:17:58;22.90;44.60
22098;DHT22;11215;51.938;8.464;2022-09-02T09:20:30;22.90;44.30
22098;DHT22;11215;51.938;8.464;2022-09-02T09:22:59;23.00;44.40
22098;DHT22;11215;51.938;8.464;2022-09-02T09:25:26;23.10;44.20
22098;DHT22;11215;51.938;8.464;2022-09-02T09:27:56;23.10;44.30
22098;DHT22;11215;51.938;8.464;2022-09-02T09:30:22;23.20;44.10
22098;DHT22;11215;51.938;8.464;2022-09-02T09:32:54;23.30;44.00
22098;DHT22;11215;51.938;8.464;2022-09-02T09:35:21;23.30;43.60
22098;DHT22;11215;51.938;8.464;2022-09-02T09:37:48;23.40;43.80
22098;DHT22;11215;51.938;8.464;2022-09-02T09:42:45;23.50;43.40
22098;DHT22;11215;51.938;8.464;2022-09-02T09:45:30;23.50;43.40
22098;DHT22;11215;51.938;8.464;2022-09-02T09:53:21;23.70;43.00
22098;DHT22;11215;51.938;8.464;2022-09-02T09:58:36;23.80;42.40
22098;DHT22;11215;51.938;8.464;2022-09-02T10:09:04;24.00;41.70
22098;DHT22;11215;51.938;8.464;2022-09-02T10:11:35;24.00;42.00
22098;DHT22;11215;51.938;8.464;2022-09-02T10:14:07;24.10;42.10
22098;DHT22;11215;51.938;8.464;2022-09-02T10:25:10;24.30;41.60
22098;DHT22;11215;51.938;8.464;2022-09-02T10:30:50;24.40;40.70
22098;DHT22;11215;51.938;8.464;2022-09-02T10:33:24;24.50;40.60
22098;DHT22;11215;51.938;8.464;2022-09-02T10:38:45;24.60;40.10
22098;DHT22;11215;51.938;8.464;2022-09-02T10:46:24;24.70;40.00
22098;DHT22;11215;51.938;8.464;2022-09-02T10:49:12;24.80;40.20
22098;DHT22;11215;51.938;8.464;2022-09-02T10:51:53;24.90;39.70
22098;DHT22;11215;51.938;8.464;2022-09-02T10:57:24;25.00;39.50
22098;DHT22;11215;51.938;8.464;2022-09-02T11:00:05;25.10;39.70
22098;DHT22;11215;51.938;8.464;2022-09-02T11:02:48;25.10;39.20
22098;DHT22;11215;51.938;8.464;2022-09-02T11:05:27;25.20;39.00
22098;DHT22;11215;51.938;8.464;2022-09-02T11:07:59;25.30;38.90
22098;DHT22;11215;51.938;8.464;2022-09-02T11:13:28;25.50;38.40
22098;DHT22;11215;51.938;8.464;2022-09-02T11:16:09;25.50;38.60
22098;DHT22;11215;51.938;8.464;2022-09-02T11:18:49;25.60;37.80
22098;DHT22;11215;51.938;8.464;2022-09-02T11:24:13;25.70;37.50
22098;DHT22;11215;51.938;8.464;2022-09-02T11:30:04;25.90;37.20
22098;DHT22;11215;51.938;8.464;2022-09-02T11:32:42;25.90;36.50
22098;DHT22;11215;51.938;8.464;2022-09-02T11:35:24;26.00;36.10
22098;DHT22;11215;51.938;8.464;2022-09-02T11:38:17;26.00;35.90
22098;DHT22;11215;51.938;8.464;2022-09-02T11:53:44;26.40;36.70
22098;DHT22;11215;51.938;8.464;2022-09-02T11:56:19;26.40;36.00
22098;DHT22;11215;51.938;8.464;2022-09-02T11:58:47;26.50;35.10
22098;DHT22;11215;51.938;8.464;2022-09-02T12:03:46;26.60;35.80
22098;DHT22;11215;51.938;8.464;2022-09-02T12:06:16;26.60;35.20
22098;DHT22;11215;51.938;8.464;2022-09-02T12:11:45;26.70;35.20
22098;DHT22;11215;51.938;8.464;2022-09-02T12:14:59;26.70;34.70
22098;DHT22;11215;51.938;8.464;2022-09-02T12:17:40;26.70;34.40
22098;DHT22;11215;51.938;8.464;2022-09-02T12:20:09;26.80;34.00
22098;DHT22;11215;51.938;8.464;2022-09-02T12:22:38;26.80;34.30
22098;DHT22;11215;51.938;8.464;2022-09-02T12:27:48;26.70;33.60
22098;DHT22;11215;51.938;8.464;2022-09-02T12:33:38;26.70;34.00
22098;DHT22;11215;51.938;8.464;2022-09-02T12:36:43;26.70;33.70
22098;DHT22;11215;51.938;8.464;2022-09-02T12:38:54;26.70;33.80
22098;DHT22;11215;51.938;8.464;2022-09-02T12:41:42;26.70;34.10
22098;DHT22;11215;51.938;8.464;2022-09-02T12:47:05;26.70;33.10
22098;DHT22;11215;51.938;8.464;2022-09-02T12:49:39;26.70;33.60
22098;DHT22;11215;51.938;8.464;2022-09-02T12:52:43;26.70;33.60
22098;DHT22;11215;51.938;8.464;2022-09-02T12:57:41;26.80;33.80
22098;DHT22;11215;51.938;8.464;2022-09-02T13:00:24;26.80;33.10
22098;DHT22;11215;51.938;8.464;2022-09-02T13:06:13;26.90;32.50
22098;DHT22;11215;51.938;8.464;2022-09-02T13:18:08;27.00;32.50
22098;DHT22;11215;51.938;8.464;2022-09-02T13:25:38;27.10;33.20
22098;DHT22;11215;51.938;8.464;2022-09-02T13:31:16;27.30;33.00
22098;DHT22;11215;51.938;8.464;2022-09-02T13:33:31;27.30;32.50
22098;DHT22;11215;51.938;8.464;2022-09-02T13:35:58;27.40;32.90
22098;DHT22;11215;51.938;8.464;2022-09-02T13:38:26;27.50;32.70
22098;DHT22;11215;51.938;8.464;2022-09-02T13:40:52;27.50;32.60
22098;DHT22;11215;51.938;8.464;2022-09-02T13:43:22;27.60;32.20
22098;DHT22;11215;51.938;8.464;2022-09-02T13:45:50;27.60;31.60
22098;DHT22;11215;51.938;8.464;2022-09-02T13:48:39;27.60;31.80
22098;DHT22;11215;51.938;8.464;2022-09-02T13:51:13;27.60;31.60
22098;DHT22;11215;51.938;8.464;2022-09-02T13:53:42;27.60;31.80
22098;DHT22;11215;51.938;8.464;2022-09-02T13:56:10;27.70;32.10
22098;DHT22;11215;51.938;8.464;2022-09-02T13:58:45;27.70;32.30
22098;DHT22;11215;51.938;8.464;2022-09-02T14:01:31;27.70;32.40
22098;DHT22;11215;51.938;8.464;2022-09-02T14:04:00;27.80;32.20
22098;DHT22;11215;51.938;8.464;2022-09-02T14:06:29;27.80;32.20
22098;DHT22;11215;51.938;8.464;2022-09-02T14:09:02;27.90;32.20
22098;DHT22;11215;51.938;8.464;2022-09-02T14:11:42;27.90;31.60
22098;DHT22;11215;51.938;8.464;2022-09-02T14:14:18;27.90;31.50
22098;DHT22;11215;51.938;8.464;2022-09-02T14:16:45;27.90;31.50
22098;DHT22;11215;51.938;8.464;2022-09-02T14:19:23;27.90;31.60
22098;DHT22;11215;51.938;8.464;2022-09-02T14:21:51;27.80;31.10
22098;DHT22;11215;51.938;8.464;2022-09-02T14:24:36;27.80;31.40
22098;DHT22;11215;51.938;8.464;2022-09-02T14:27:02;27.70;31.20
22098;DHT22;11215;51.938;8.464;2022-09-02T14:29:29;27.70;31.40
22098;DHT22;11215;51.938;8.464;2022-09-02T14:32:12;27.60;31.40
22098;DHT22;11215;51.938;8.464;2022-09-02T14:34:42;27.60;31.00
22098;DHT22;11215;51.938;8.464;2022-09-02T14:40:07;27.50;31.30
22098;DHT22;11215;51.938;8.464;2022-09-02T14:42:48;27.50;31.20
22098;DHT22;11215;51.938;8.464;2022-09-02T14:45:25;27.50;31.00
22098;DHT22;11215;51.938;8.464;2022-09-02T14:47:51;27.40;31.10
22098;DHT22;11215;51.938;8.464;2022-09-02T14:50:27;27.40;31.50
22098;DHT22;11215;51.938;8.464;2022-09-02T14:53:00;27.40;30.90
22098;DHT22;11215;51.938;8.464;2022-09-02T14:55:49;27.40;31.30
22098;DHT22;11215;51.938;8.464;2022-09-02T14:58:18;27.40;31.00
22098;DHT22;11215;51.938;8.464;2022-09-02T15:00:49;27.40;31.40
22098;DHT22;11215;51.938;8.464;2022-09-02T15:03:17;27.40;31.70
22098;DHT22;11215;51.938;8.464;2022-09-02T15:05:43;27.40;31.70
22098;DHT22;11215;51.938;8.464;2022-09-02T15:08:09;27.40;31.50
22098;DHT22;11215;51.938;8.464;2022-09-02T15:10:36;27.40;31.60
22098;DHT22;11215;51.938;8.464;2022-09-02T15:13:03;27.40;31.40
22098;DHT22;11215;51.938;8.464;2022-09-02T15:15:29;27.40;31.30
22098;DHT22;11215;51.938;8.464;2022-09-02T15:17:55;27.40;31.20
22098;DHT22;11215;51.938;8.464;2022-09-02T15:20:21;27.40;31.40
22098;DHT22;11215;51.938;8.464;2022-09-02T15:22:47;27.40;31.20
22098;DHT22;11215;51.938;8.464;2022-09-02T15:25:13;27.40;31.20
22098;DHT22;11215;51.938;8.464;2022-09-02T15:27:39;27.40;31.00
22098;DHT22;11215;51.938;8.464;2022-09-02T15:30:06;27.40;31.00
22098;DHT22;11215;51.938;8.464;2022-09-02T15:32:33;27.40;30.80
22098;DHT22;11215;51.938;8.464;2022-09-02T15:35:00;27.40;30.90
22098;DHT22;11215;51.938;8.464;2022-09-02T15:37:25;27.40;31.00
22098;DHT22;11215;51.938;8.464;2022-09-02T15:39:52;27.40;31.00
22098;DHT22;11215;51.938;8.464;2022-09-02T15:42:17;27.40;30.90
22098;DHT22;11215;51.938;8.464;2022-09-02T15:44:44;27.30;31.00
22098;DHT22;11215;51.938;8.464;2022-09-02T15:47:10;27.40;31.00
22098;DHT22;11215;51.938;8.464;2022-09-02T15:49:36;27.40;31.00
22098;DHT22;11215;51.938;8.464;2022-09-02T15:52:02;27.40;30.90
22098;DHT22;11215;51.938;8.464;2022-09-02T15:54:28;27.40;31.00
22098;DHT22;11215;51.938;8.464;2022-09-02T15:56:56;27.40;30.90
22098;DHT22;11215;51.938;8.464;2022-09-02T15:59:23;27.50;30.80
22098;DHT22;11215;51.938;8.464;2022-09-02T16:01:54;27.50;30.70
22098;DHT22;11215;51.938;8.464;2022-09-02T16:04:20;27.50;30.40
22098;DHT22;11215;51.938;8.464;2022-09-02T16:06:48;27.50;30.70
22098;DHT22;11215;51.938;8.464;2022-09-02T16:09:15;27.50;30.60
22098;DHT22;11215;51.938;8.464;2022-09-02T16:11:43;27.50;31.20
22098;DHT22;11215;51.938;8.464;2022-09-02T16:14:10;27.50;30.50
22098;DHT22;11215;51.938;8.464;2022-09-02T16:16:36;27.60;30.60
22098;DHT22;11215;51.938;8.464;2022-09-02T16:19:04;27.60;30.60
22098;DHT22;11215;51.938;8.464;2022-09-02T16:21:30;27.60;30.30
22098;DHT22;11215;51.938;8.464;2022-09-02T16:23:56;27.50;30.20
22098;DHT22;11215;51.938;8.464;2022-09-02T16:26:27;27.50;30.40
22098;DHT22;11215;51.938;8.464;2022-09-02T16:28:55;27.50;30.20
22098;DHT22;11215;51.938;8.464;2022-09-02T16:31:22;27.40;30.20
22098;DHT22;11215;51.938;8.464;2022-09-02T16:34:05;27.40;30.20
22098;DHT22;11215;51.938;8.464;2022-09-02T16:36:34;27.30;30.00
22098;DHT22;11215;51.938;8.464;2022-09-02T16:39:00;27.30;30.30
22098;DHT22;11215;51.938;8.464;2022-09-02T16:43:57;27.10;30.40
22098;DHT22;11215;51.938;8.464;2022-09-02T16:46:24;27.10;30.40
22098;DHT22;11215;51.938;8.464;2022-09-02T16:48:50;27.00;30.30
22098;DHT22;11215;51.938;8.464;2022-09-02T16:51:16;27.00;30.40
22098;DHT22;11215;51.938;8.464;2022-09-02T16:53:43;27.00;30.50
22098;DHT22;11215;51.938;8.464;2022-09-02T16:56:15;26.90;30.40
22098;DHT22;11215;51.938;8.464;2022-09-02T16:58:45;26.90;30.20
22098;DHT22;11215;51.938;8.464;2022-09-02T17:01:11;27.00;30.60
22098;DHT22;11215;51.938;8.464;2022-09-02T17:03:38;27.00;30.60
22098;DHT22;11215;51.938;8.464;2022-09-02T17:06:04;27.00;30.60
22098;DHT22;11215;51.938;8.464;2022-09-02T17:08:30;27.00;30.70
22098;DHT22;11215;51.938;8.464;2022-09-02T17:13:40;27.00;30.40
22098;DHT22;11215;51.938;8.464;2022-09-02T17:16:06;27.10;30.70
22098;DHT22;11215;51.938;8.464;2022-09-02T17:18:33;27.10;30.70
22098;DHT22;11215;51.938;8.464;2022-09-02T17:21:32;27.20;30.70
22098;DHT22;11215;51.938;8.464;2022-09-02T17:23:59;27.30;30.40
22098;DHT22;11215;51.938;8.464;2022-09-02T17:26:26;27.40;30.80
22098;DHT22;11215;51.938;8.464;2022-09-02T17:28:53;27.50;30.60
22098;DHT22;11215;51.938;8.464;2022-09-02T17:31:26;27.60;30.50
22098;DHT22;11215;51.938;8.464;2022-09-02T17:33:54;27.70;30.30
22098;DHT22;11215;51.938;8.464;2022-09-02T17:36:20;27.80;30.30
22098;DHT22;11215;51.938;8.464;2022-09-02T17:38:46;27.90;30.30
22098;DHT22;11215;51.938;8.464;2022-09-02T17:41:13;28.00;30.40
22098;DHT22;11215;51.938;8.464;2022-09-02T17:43:58;28.10;30.40
22098;DHT22;11215;51.938;8.464;2022-09-02T17:46:24;28.10;30.10
22098;DHT22;11215;51.938;8.464;2022-09-02T17:48:50;28.10;30.00